Terminal Aerodrome Forecast
Issued by NWS Indianapolis, IN

Home | Current Version | Previous Version | Text Only | Print | Product List | Glossary On
Versions: 1 2 3 4 5 6 7 8 9 10 11 12 13 14 15 16 17 18 19 20 21 22 23 24 25 26 27 28 29 30 31 32 33 34 35 36 37 38 39 40 41 42 43 44 45 46 47 48 49
000
FTUS43 KIND 181415 AAB
TAFIND
TAF AMD
KIND 181415Z 1814/1918 20017G29KT 6SM -SHRA BR VCTS BKN015 OVC040CB
     FM182000 25013G20KT 5SM SHRA BR VCTS OVC015CB
     FM190300 01011KT 5SM +SHRA BR OVC009
     FM190900 36016G26KT 6SM +SHRA BR OVC012
     FM191300 35016G24KT P6SM OVC010=

USA.gov is the U.S. government's official web portal to all federal, state and local government web resources and services.